FW1895 Weather Reports


Display with metric or nautical units.
time (UTC)temp
F
wind
direction
speed
MPH
gust
MPH
rain 1hr
in
rain 24hr
in
rain mn
in
humidity
%
barometer
mb
20190916144632 70 311 10.0 17.0 0.00 0.00 0.00 35 1011.3
20190916143241 70 9 4.0 11.0 0.00 0.00 0.00 36 1011.0
20190916141648 69 274 2.0 10.0 0.00 0.00 0.00 35 1010.7
20190916140149 67 306 3.0 9.0 0.00 0.00 0.00 36 1010.8
20190916134841 64 114 1.0 4.0 0.00 0.00 0.00 44 1010.7
20190916133139 66 24 2.0 6.0 0.00 0.00 0.00 36 1010.6
20190916131611 66 41 4.0 7.0 0.00 0.00 0.00 37 1010.7
20190916130105 69 52 0.0 3.0 0.00 0.00 0.00 33 1010.3
20190916124737 69 52 1.0 5.0 0.00 0.00 0.00 31 1010.5
20190916123143 69 19 3.0 9.0 0.00 0.00 0.00 32 1010.3
20190916121610 68 342 4.0 11.0 0.00 0.00 0.00 35 1010.3
20190916120103 67 30 3.0 6.0 0.00 0.00 0.00 36 1010.3
20190916114542 68 5 2.0 5.0 0.00 0.00 0.00 41 1010.4
20190916113114 71 32 3.0 9.0 0.00 0.00 0.00 33 1010.6
20190916111602 72 32 4.0 9.0 0.00 0.00 0.00 29 1010.6
20190916110128 73 75 3.0 9.0 0.00 0.00 0.00 29 1010.5
20190916104548 73 66 5.0 15.0 0.00 0.00 0.00 28 1010.5
20190916103050 74 82 7.0 14.0 0.00 0.00 0.00 27 1010.5
20190916101553 73 108 6.0 11.0 0.00 0.00 0.00 27 1010.5
20190916100115 72 101 6.0 9.0 0.00 0.00 0.00 28 1010.7
20190916094525 72 162 3.0 6.0 0.00 0.00 0.00 29 1010.7
20190916093036 71 10 1.0 4.0 0.00 0.00 0.00 29 1010.8
20190916091543 72 321 4.0 11.0 0.00 0.00 0.00 29 1011.2
20190916090050 71 360 3.0 8.0 0.00 0.00 0.00 29 1011.1
20190916084534 72 11 4.0 9.0 0.00 0.00 0.00 26 1011.5
20190916083117 72 138 1.0 8.0 0.00 0.00 0.00 25 1011.5
20190916081513 72 79 2.0 5.0 0.00 0.00 0.00 26 1011.3
20190916080029 71 292 1.0 8.0 0.00 0.00 0.00 28 1011.4
20190916074514 70 26 5.0 13.0 0.00 0.00 0.00 31 1011.5
20190916073026 70 16 2.0 6.0 0.00 0.00 0.00 31 1011.4
20190916071507 70 333 0.0 3.0 0.00 0.00 0.00 31 1011.5
20190916070127 70 333 2.0 4.0 0.00 0.00 0.00 29 1011.5
20190916064622 70 335 6.0 11.0 0.00 0.00 0.00 32 1011.4
20190916063205 69 313 6.0 10.0 0.00 0.00 0.00 34 1011.4
20190916061733 70 153 0.0 3.0 0.00 0.00 0.00 31 1011.3
20190916060216 71 144 1.0 4.0 0.00 0.00 0.00 31 1011.4
20190916054637 72 49 1.0 3.0 0.00 0.00 0.00 29 1011.3
20190916053159 73 49 0.0 5.0 0.00 0.00 0.00 27 1011.4
20190916051621 73 49 2.0 3.0 0.00 0.00 0.00 28 1011.3
20190916050132 73 346 1.0 10.0 0.00 0.00 0.00 29 1011.2
20190916044709 73 311 5.0 12.0 0.00 0.00 0.00 29 1011.3
20190916043202 73 355 6.0 14.0 0.00 0.00 0.00 29 1011.1
20190916041709 74 279 5.0 10.0 0.00 0.00 0.00 29 1011.2
20190916040240 74 308 2.0 9.0 0.00 0.00 0.00 29 1011.0
20190916034639 74 326 7.0 13.0 0.00 0.00 0.00 30 1011.0
20190916033154 75 294 4.0 10.0 0.00 0.00 0.00 29 1011.0
20190916031645 75 294 5.0 13.0 0.00 0.00 0.00 28 1011.0
20190916030334 76 300 7.0 16.0 0.00 0.00 0.00 28 1010.6
20190916024614 76 311 9.0 17.0 0.00 0.00 0.00 28 1010.2
20190916023205 77 306 9.0 16.0 0.00 0.00 0.00 29 1010.2
20190916021617 77 311 10.0 17.0 0.00 0.00 0.00 31 1010.2
20190916020140 78 314 11.0 18.0 0.00 0.00 0.00 30 1010.0
20190916014641 80 348 11.0 18.0 0.00 0.00 0.00 29 1010.0
20190916013214 82 306 11.0 19.0 0.00 0.00 0.00 25 1009.8
20190916011622 83 317 13.0 24.0 0.00 0.00 0.00 20 1009.8
20190916010209 84 9 12.0 22.0 0.00 0.00 0.00 17 1009.8
20190916004858 85 336 13.0 24.0 0.00 0.00 0.00 17 1009.6
20190916003118 85 350 15.0 23.0 0.00 0.00 0.00 17 1009.6
20190916001721 85 348 13.0 23.0 0.00 0.00 0.00 18 1009.6
20190916000112 85 325 12.0 28.0 0.00 0.00 0.00 19 1009.4
20190915234641 85 360 16.0 25.0 0.00 0.00 0.00 18 1009.4
20190915233128 85 334 9.0 26.0 0.00 0.00 0.00 19 1009.4
20190915231638 86 340 11.0 29.0 0.00 0.00 0.00 18 1009.4
20190915230208 87 310 17.0 26.0 0.00 0.00 0.00 17 1009.4
20190915224647 87 321 17.0 26.0 0.00 0.00 0.00 14 1009.5
20190915223132 87 328 15.0 25.0 0.00 0.00 0.00 15 1009.8
20190915221556 87 323 12.0 24.0 0.00 0.00 0.00 16 1010.0
20190915220133 88 290 11.0 26.0 0.00 0.00 0.00 17 1010.1
20190915214636 88 314 15.0 25.0 0.00 0.00 0.00 17 1010.2
20190915213212 89 5 15.0 27.0 0.00 0.00 0.00 16 1010.3
20190915211543 90 319 14.0 22.0 0.00 0.00 0.00 16 1010.3
20190915210046 89 262 14.0 20.0 0.00 0.00 0.00 16 1010.6
20190915204555 87 13 16.0 25.0 0.00 0.00 0.00 15 1010.8
20190915203026 88 321 13.0 24.0 0.00 0.00 0.00 16 1010.7
20190915201539 87 313 13.0 22.0 0.00 0.00 0.00 16 1011.0
20190915200049 86 309 13.0 22.0 0.00 0.00 0.00 16 1011.2
20190915194520 87 328 10.0 18.0 0.00 0.00 0.00 17 1011.3
20190915193021 88 299 9.0 17.0 0.00 0.00 0.00 17 1011.7
20190915191521 88 337 11.0 19.0 0.00 0.00 0.00 18 1011.8
20190915190020 88 313 10.0 24.0 0.00 0.00 0.00 17 1011.8
20190915184518 86 324 11.0 18.0 0.00 0.00 0.00 17 1012.2
20190915183015 87 339 11.0 18.0 0.00 0.00 0.00 17 1012.3
20190915181515 85 319 11.0 21.0 0.00 0.00 0.00 20 1012.6
20190915180004 86 329 10.0 20.0 0.00 0.00 0.00 20 1012.6
20190915174808 85 5 10.0 19.0 0.00 0.00 0.00 20 1012.6
20190915173234 85 311 10.0 16.0 0.00 0.00 0.00 21 1012.7
20190915171841 85 305 12.0 20.0 0.00 0.00 0.00 22 1012.7
20190915170201 85 301 10.0 20.0 0.00 0.00 0.00 24 1012.8
20190915164709 84 321 7.0 13.0 0.00 0.00 0.00 25 1012.8
20190915163141 83 296 7.0 17.0 0.00 0.00 0.00 26 1012.7
20190915161606 82 288 4.0 9.0 0.00 0.00 0.00 27 1012.7
20190915160116 82 305 3.0 11.0 0.00 0.00 0.00 31 1012.9
20190915154656 79 275 4.0 7.0 0.00 0.00 0.00 30 1012.9
20190915153135 71 190 0.0 1.0 0.00 0.00 0.00 42 1012.9
20190915151600 64 190 0.0 3.0 0.00 0.00 0.00 65 1012.8
20190915150108 59 191 0.0 2.0 0.00 0.00 0.00 73 1012.8